sensor_id;sensor_type;location;lat;lon;timestamp;temperature;humidity
37322;DHT22;23697;48.684;9.032;2023-09-19T00:00:07;15.60;89.20
37322;DHT22;23697;48.684;9.032;2023-09-19T00:02:34;15.70;89.20
37322;DHT22;23697;48.684;9.032;2023-09-19T00:05:09;15.70;89.10
37322;DHT22;23697;48.684;9.032;2023-09-19T00:07:44;15.60;89.10
37322;DHT22;23697;48.684;9.032;2023-09-19T00:10:21;15.60;89.20
37322;DHT22;23697;48.684;9.032;2023-09-19T00:12:51;15.60;89.10
37322;DHT22;23697;48.684;9.032;2023-09-19T00:15:26;15.50;89.20
37322;DHT22;23697;48.684;9.032;2023-09-19T00:18:09;15.60;89.30
37322;DHT22;23697;48.684;9.032;2023-09-19T00:20:39;15.60;89.30
37322;DHT22;23697;48.684;9.032;2023-09-19T00:23:17;15.50;89.30
37322;DHT22;23697;48.684;9.032;2023-09-19T00:25:59;15.50;89.30
37322;DHT22;23697;48.684;9.032;2023-09-19T00:29:11;15.50;89.40
37322;DHT22;23697;48.684;9.032;2023-09-19T00:35:40;15.40;89.40
37322;DHT22;23697;48.684;9.032;2023-09-19T00:38:26;15.40;89.50
37322;DHT22;23697;48.684;9.032;2023-09-19T00:41:01;15.50;89.40
37322;DHT22;23697;48.684;9.032;2023-09-19T00:46:46;15.50;89.30
37322;DHT22;23697;48.684;9.032;2023-09-19T00:49:24;15.50;89.30
37322;DHT22;23697;48.684;9.032;2023-09-19T00:55:47;15.40;89.30
37322;DHT22;23697;48.684;9.032;2023-09-19T00:59:00;15.40;89.30
37322;DHT22;23697;48.684;9.032;2023-09-19T01:01:28;15.40;89.30
37322;DHT22;23697;48.684;9.032;2023-09-19T01:04:11;15.50;89.30
37322;DHT22;23697;48.684;9.032;2023-09-19T01:06:38;15.40;89.30
37322;DHT22;23697;48.684;9.032;2023-09-19T01:09:07;15.40;89.20
37322;DHT22;23697;48.684;9.032;2023-09-19T01:11:40;15.40;89.30
37322;DHT22;23697;48.684;9.032;2023-09-19T01:14:19;15.40;89.20
37322;DHT22;23697;48.684;9.032;2023-09-19T01:17:17;15.40;89.20
37322;DHT22;23697;48.684;9.032;2023-09-19T01:20:19;15.40;89.10
37322;DHT22;23697;48.684;9.032;2023-09-19T01:22:56;15.40;88.70
37322;DHT22;23697;48.684;9.032;2023-09-19T01:26:04;15.50;88.60
37322;DHT22;23697;48.684;9.032;2023-09-19T01:28:43;15.40;88.70
37322;DHT22;23697;48.684;9.032;2023-09-19T01:31:14;15.50;88.40
37322;DHT22;23697;48.684;9.032;2023-09-19T01:33:58;15.50;88.40
37322;DHT22;23697;48.684;9.032;2023-09-19T01:36:30;15.50;88.20
37322;DHT22;23697;48.684;9.032;2023-09-19T01:39:00;15.50;88.20
37322;DHT22;23697;48.684;9.032;2023-09-19T01:41:46;15.50;88.10
37322;DHT22;23697;48.684;9.032;2023-09-19T01:44:22;15.50;88.30
37322;DHT22;23697;48.684;9.032;2023-09-19T01:46:54;15.50;88.10
37322;DHT22;23697;48.684;9.032;2023-09-19T01:49:34;15.50;88.20
37322;DHT22;23697;48.684;9.032;2023-09-19T01:52:09;15.50;88.20
37322;DHT22;23697;48.684;9.032;2023-09-19T01:54:41;15.50;88.30
37322;DHT22;23697;48.684;9.032;2023-09-19T01:57:17;15.50;88.20
37322;DHT22;23697;48.684;9.032;2023-09-19T01:59:50;15.40;88.30
37322;DHT22;23697;48.684;9.032;2023-09-19T02:02:21;15.40;88.30
37322;DHT22;23697;48.684;9.032;2023-09-19T02:04:49;15.40;88.20
37322;DHT22;23697;48.684;9.032;2023-09-19T02:07:16;15.30;88.30
37322;DHT22;23697;48.684;9.032;2023-09-19T02:09:43;15.30;88.40
37322;DHT22;23697;48.684;9.032;2023-09-19T02:12:10;15.20;88.40
37322;DHT22;23697;48.684;9.032;2023-09-19T02:14:38;15.20;88.50
37322;DHT22;23697;48.684;9.032;2023-09-19T02:17:05;15.20;88.50
37322;DHT22;23697;48.684;9.032;2023-09-19T02:19:36;15.20;88.50
37322;DHT22;23697;48.684;9.032;2023-09-19T02:22:04;15.10;88.50
37322;DHT22;23697;48.684;9.032;2023-09-19T02:24:33;15.10;88.60
37322;DHT22;23697;48.684;9.032;2023-09-19T02:27:00;15.10;88.70
37322;DHT22;23697;48.684;9.032;2023-09-19T02:29:29;15.10;88.70
37322;DHT22;23697;48.684;9.032;2023-09-19T02:31:56;15.10;88.70
37322;DHT22;23697;48.684;9.032;2023-09-19T02:34:24;15.10;88.70
37322;DHT22;23697;48.684;9.032;2023-09-19T02:36:53;15.10;88.80
37322;DHT22;23697;48.684;9.032;2023-09-19T02:39:21;15.10;88.80
37322;DHT22;23697;48.684;9.032;2023-09-19T02:41:49;15.10;88.80
37322;DHT22;23697;48.684;9.032;2023-09-19T02:44:16;15.00;88.80
37322;DHT22;23697;48.684;9.032;2023-09-19T02:46:45;15.10;88.90
37322;DHT22;23697;48.684;9.032;2023-09-19T02:49:12;15.10;88.90
37322;DHT22;23697;48.684;9.032;2023-09-19T02:51:39;15.00;89.00
37322;DHT22;23697;48.684;9.032;2023-09-19T02:54:08;15.00;89.10
37322;DHT22;23697;48.684;9.032;2023-09-19T02:56:35;15.10;89.10
37322;DHT22;23697;48.684;9.032;2023-09-19T02:59:02;15.10;89.10
37322;DHT22;23697;48.684;9.032;2023-09-19T03:01:29;15.10;89.10
37322;DHT22;23697;48.684;9.032;2023-09-19T03:03:57;15.10;89.10
37322;DHT22;23697;48.684;9.032;2023-09-19T03:06:25;15.10;89.20
37322;DHT22;23697;48.684;9.032;2023-09-19T03:08:52;15.10;89.20
37322;DHT22;23697;48.684;9.032;2023-09-19T03:11:20;15.20;89.20
37322;DHT22;23697;48.684;9.032;2023-09-19T03:13:51;15.20;89.10
37322;DHT22;23697;48.684;9.032;2023-09-19T03:16:19;15.30;89.00
37322;DHT22;23697;48.684;9.032;2023-09-19T03:18:47;15.30;89.00
37322;DHT22;23697;48.684;9.032;2023-09-19T03:21:14;15.30;88.90
37322;DHT22;23697;48.684;9.032;2023-09-19T03:23:42;15.20;88.80
37322;DHT22;23697;48.684;9.032;2023-09-19T03:26:11;15.30;88.90
37322;DHT22;23697;48.684;9.032;2023-09-19T03:28:41;15.30;88.80
37322;DHT22;23697;48.684;9.032;2023-09-19T03:31:09;15.40;88.90
37322;DHT22;23697;48.684;9.032;2023-09-19T03:33:36;15.30;89.00
37322;DHT22;23697;48.684;9.032;2023-09-19T03:36:04;15.40;89.00
37322;DHT22;23697;48.684;9.032;2023-09-19T03:38:31;15.40;89.00
37322;DHT22;23697;48.684;9.032;2023-09-19T03:40:59;15.40;89.10
37322;DHT22;23697;48.684;9.032;2023-09-19T03:43:25;15.30;89.10
37322;DHT22;23697;48.684;9.032;2023-09-19T03:45:54;15.30;89.20
37322;DHT22;23697;48.684;9.032;2023-09-19T03:48:21;15.40;89.20
37322;DHT22;23697;48.684;9.032;2023-09-19T03:50:48;15.30;89.20
37322;DHT22;23697;48.684;9.032;2023-09-19T03:53:15;15.30;89.40
37322;DHT22;23697;48.684;9.032;2023-09-19T03:55:44;15.30;89.50
37322;DHT22;23697;48.684;9.032;2023-09-19T03:58:11;15.30;89.40
37322;DHT22;23697;48.684;9.032;2023-09-19T04:00:38;15.40;89.50
37322;DHT22;23697;48.684;9.032;2023-09-19T04:03:06;15.30;89.50
37322;DHT22;23697;48.684;9.032;2023-09-19T04:05:33;15.20;89.50
37322;DHT22;23697;48.684;9.032;2023-09-19T04:08:00;15.30;89.50
37322;DHT22;23697;48.684;9.032;2023-09-19T04:10:27;15.20;89.50
37322;DHT22;23697;48.684;9.032;2023-09-19T04:12:55;15.20;89.60
37322;DHT22;23697;48.684;9.032;2023-09-19T04:15:23;15.20;89.50
37322;DHT22;23697;48.684;9.032;2023-09-19T04:17:50;15.20;89.60
37322;DHT22;23697;48.684;9.032;2023-09-19T04:20:18;15.20;89.60
37322;DHT22;23697;48.684;9.032;2023-09-19T04:22:47;15.30;89.60
37322;DHT22;23697;48.684;9.032;2023-09-19T04:25:14;15.30;89.70
37322;DHT22;23697;48.684;9.032;2023-09-19T04:27:41;15.20;89.60
37322;DHT22;23697;48.684;9.032;2023-09-19T04:30:10;15.30;89.70
37322;DHT22;23697;48.684;9.032;2023-09-19T04:32:38;15.30;89.60
37322;DHT22;23697;48.684;9.032;2023-09-19T04:35:07;15.30;89.60
37322;DHT22;23697;48.684;9.032;2023-09-19T04:37:37;15.30;89.50
37322;DHT22;23697;48.684;9.032;2023-09-19T04:40:06;15.30;89.60
37322;DHT22;23697;48.684;9.032;2023-09-19T04:42:38;15.40;89.50
37322;DHT22;23697;48.684;9.032;2023-09-19T04:45:06;15.30;89.40
37322;DHT22;23697;48.684;9.032;2023-09-19T04:47:35;15.30;89.40
37322;DHT22;23697;48.684;9.032;2023-09-19T04:50:06;15.40;89.40
37322;DHT22;23697;48.684;9.032;2023-09-19T04:52:39;15.40;89.40
37322;DHT22;23697;48.684;9.032;2023-09-19T04:55:14;15.40;89.50
37322;DHT22;23697;48.684;9.032;2023-09-19T04:57:43;15.40;89.50
37322;DHT22;23697;48.684;9.032;2023-09-19T05:00:13;15.40;89.50
37322;DHT22;23697;48.684;9.032;2023-09-19T05:02:45;15.40;89.50
37322;DHT22;23697;48.684;9.032;2023-09-19T05:05:13;15.40;89.60
37322;DHT22;23697;48.684;9.032;2023-09-19T05:07:48;15.30;89.70
37322;DHT22;23697;48.684;9.032;2023-09-19T05:10:15;15.30;89.90
37322;DHT22;23697;48.684;9.032;2023-09-19T05:12:44;15.20;90.00
37322;DHT22;23697;48.684;9.032;2023-09-19T05:15:13;15.20;90.10
37322;DHT22;23697;48.684;9.032;2023-09-19T05:17:43;15.20;90.20
37322;DHT22;23697;48.684;9.032;2023-09-19T05:20:14;15.20;90.20
37322;DHT22;23697;48.684;9.032;2023-09-19T05:22:57;15.20;90.30
37322;DHT22;23697;48.684;9.032;2023-09-19T05:25:26;15.20;90.30
37322;DHT22;23697;48.684;9.032;2023-09-19T05:27:55;15.20;90.30
37322;DHT22;23697;48.684;9.032;2023-09-19T05:30:23;15.20;90.40
37322;DHT22;23697;48.684;9.032;2023-09-19T05:32:50;15.20;90.40
37322;DHT22;23697;48.684;9.032;2023-09-19T05:35:17;15.20;90.40
37322;DHT22;23697;48.684;9.032;2023-09-19T05:37:44;15.20;90.40
37322;DHT22;23697;48.684;9.032;2023-09-19T05:40:13;15.20;90.50
37322;DHT22;23697;48.684;9.032;2023-09-19T05:42:40;15.20;90.50
37322;DHT22;23697;48.684;9.032;2023-09-19T05:45:29;15.30;90.50
37322;DHT22;23697;48.684;9.032;2023-09-19T05:48:11;15.30;90.50
37322;DHT22;23697;48.684;9.032;2023-09-19T05:50:41;15.40;90.40
37322;DHT22;23697;48.684;9.032;2023-09-19T05:53:08;15.40;90.40
37322;DHT22;23697;48.684;9.032;2023-09-19T05:55:39;15.40;90.30
37322;DHT22;23697;48.684;9.032;2023-09-19T05:58:06;15.40;90.20
37322;DHT22;23697;48.684;9.032;2023-09-19T06:00:34;15.40;90.40
37322;DHT22;23697;48.684;9.032;2023-09-19T06:03:02;15.40;90.20
37322;DHT22;23697;48.684;9.032;2023-09-19T06:05:30;15.40;90.20
37322;DHT22;23697;48.684;9.032;2023-09-19T06:08:02;15.40;90.30
37322;DHT22;23697;48.684;9.032;2023-09-19T06:10:33;15.30;90.40
37322;DHT22;23697;48.684;9.032;2023-09-19T06:13:03;15.30;90.50
37322;DHT22;23697;48.684;9.032;2023-09-19T06:15:37;15.20;90.30
37322;DHT22;23697;48.684;9.032;2023-09-19T06:38:55;15.10;90.50
37322;DHT22;23697;48.684;9.032;2023-09-19T06:48:00;15.40;90.30
37322;DHT22;23697;48.684;9.032;2023-09-19T07:28:02;16.10;89.50
37322;DHT22;23697;48.684;9.032;2023-09-19T07:30:29;16.30;89.50
37322;DHT22;23697;48.684;9.032;2023-09-19T07:32:56;16.40;89.40
37322;DHT22;23697;48.684;9.032;2023-09-19T07:35:22;16.40;89.30
37322;DHT22;23697;48.684;9.032;2023-09-19T07:37:50;16.50;89.30
37322;DHT22;23697;48.684;9.032;2023-09-19T07:40:18;16.50;89.30
37322;DHT22;23697;48.684;9.032;2023-09-19T07:42:45;16.60;89.20
37322;DHT22;23697;48.684;9.032;2023-09-19T07:45:14;16.60;89.00
37322;DHT22;23697;48.684;9.032;2023-09-19T07:47:44;16.60;88.70
37322;DHT22;23697;48.684;9.032;2023-09-19T07:50:11;16.70;88.70
37322;DHT22;23697;48.684;9.032;2023-09-19T07:52:38;16.70;88.20
37322;DHT22;23697;48.684;9.032;2023-09-19T07:55:06;16.70;87.90
37322;DHT22;23697;48.684;9.032;2023-09-19T07:57:35;16.80;87.60
37322;DHT22;23697;48.684;9.032;2023-09-19T08:00:03;17.00;87.80
37322;DHT22;23697;48.684;9.032;2023-09-19T08:02:36;17.30;87.50
37322;DHT22;23697;48.684;9.032;2023-09-19T08:05:03;17.40;87.10
37322;DHT22;23697;48.684;9.032;2023-09-19T08:07:32;17.60;86.40
37322;DHT22;23697;48.684;9.032;2023-09-19T08:10:23;17.80;86.00
37322;DHT22;23697;48.684;9.032;2023-09-19T08:12:56;17.80;85.20
37322;DHT22;23697;48.684;9.032;2023-09-19T08:15:32;17.80;84.40
37322;DHT22;23697;48.684;9.032;2023-09-19T08:18:02;17.80;84.50
37322;DHT22;23697;48.684;9.032;2023-09-19T08:20:33;17.90;83.70
37322;DHT22;23697;48.684;9.032;2023-09-19T08:23:01;18.00;83.10
37322;DHT22;23697;48.684;9.032;2023-09-19T08:25:29;18.00;82.80
37322;DHT22;23697;48.684;9.032;2023-09-19T08:27:56;17.80;81.00
37322;DHT22;23697;48.684;9.032;2023-09-19T08:30:25;17.70;82.50
37322;DHT22;23697;48.684;9.032;2023-09-19T08:32:57;17.60;83.30
37322;DHT22;23697;48.684;9.032;2023-09-19T08:35:26;17.40;82.60
37322;DHT22;23697;48.684;9.032;2023-09-19T08:37:53;17.30;83.30
37322;DHT22;23697;48.684;9.032;2023-09-19T08:40:21;17.40;83.40
37322;DHT22;23697;48.684;9.032;2023-09-19T08:42:49;17.50;82.10
37322;DHT22;23697;48.684;9.032;2023-09-19T08:45:16;17.60;82.50
37322;DHT22;23697;48.684;9.032;2023-09-19T08:47:46;17.80;82.60
37322;DHT22;23697;48.684;9.032;2023-09-19T08:50:19;18.10;81.60
37322;DHT22;23697;48.684;9.032;2023-09-19T08:52:51;18.50;82.20
37322;DHT22;23697;48.684;9.032;2023-09-19T08:55:23;18.80;79.80
37322;DHT22;23697;48.684;9.032;2023-09-19T08:57:55;19.10;78.90
37322;DHT22;23697;48.684;9.032;2023-09-19T09:00:26;19.40;78.10
37322;DHT22;23697;48.684;9.032;2023-09-19T09:02:55;19.40;77.30
37322;DHT22;23697;48.684;9.032;2023-09-19T09:05:23;19.60;73.90
37322;DHT22;23697;48.684;9.032;2023-09-19T09:07:53;19.80;76.30
37322;DHT22;23697;48.684;9.032;2023-09-19T09:10:22;20.00;73.00
37322;DHT22;23697;48.684;9.032;2023-09-19T09:12:50;19.80;71.50
37322;DHT22;23697;48.684;9.032;2023-09-19T09:15:19;19.80;72.40
37322;DHT22;23697;48.684;9.032;2023-09-19T09:17:47;19.60;70.50
37322;DHT22;23697;48.684;9.032;2023-09-19T09:20:16;19.80;72.40
37322;DHT22;23697;48.684;9.032;2023-09-19T09:22:50;20.10;70.20
37322;DHT22;23697;48.684;9.032;2023-09-19T09:25:19;19.90;69.90
37322;DHT22;23697;48.684;9.032;2023-09-19T09:27:58;19.50;69.10
37322;DHT22;23697;48.684;9.032;2023-09-19T09:30:33;19.60;69.20
37322;DHT22;23697;48.684;9.032;2023-09-19T09:33:10;19.70;71.20
37322;DHT22;23697;48.684;9.032;2023-09-19T09:35:37;20.00;71.50
37322;DHT22;23697;48.684;9.032;2023-09-19T09:38:13;20.00;66.40
37322;DHT22;23697;48.684;9.032;2023-09-19T09:40:48;20.00;68.70
37322;DHT22;23697;48.684;9.032;2023-09-19T09:43:27;20.00;66.40
37322;DHT22;23697;48.684;9.032;2023-09-19T09:46:13;20.10;65.20
37322;DHT22;23697;48.684;9.032;2023-09-19T09:49:00;20.10;67.30
37322;DHT22;23697;48.684;9.032;2023-09-19T09:51:46;20.20;66.20
37322;DHT22;23697;48.684;9.032;2023-09-19T09:54:23;20.30;65.50
37322;DHT22;23697;48.684;9.032;2023-09-19T09:56:55;20.50;67.50
37322;DHT22;23697;48.684;9.032;2023-09-19T09:59:45;20.60;63.70
37322;DHT22;23697;48.684;9.032;2023-09-19T10:02:13;20.60;64.70
37322;DHT22;23697;48.684;9.032;2023-09-19T10:04:40;20.60;60.70
37322;DHT22;23697;48.684;9.032;2023-09-19T10:07:27;20.70;63.10
37322;DHT22;23697;48.684;9.032;2023-09-19T10:09:58;20.40;62.00
37322;DHT22;23697;48.684;9.032;2023-09-19T10:12:40;20.40;63.40
37322;DHT22;23697;48.684;9.032;2023-09-19T10:15:11;20.20;63.00
37322;DHT22;23697;48.684;9.032;2023-09-19T10:17:46;20.10;62.90
37322;DHT22;23697;48.684;9.032;2023-09-19T10:20:16;20.40;63.60
37322;DHT22;23697;48.684;9.032;2023-09-19T10:23:00;20.60;63.10
37322;DHT22;23697;48.684;9.032;2023-09-19T10:25:28;20.80;61.60
37322;DHT22;23697;48.684;9.032;2023-09-19T10:27:58;20.80;59.90
37322;DHT22;23697;48.684;9.032;2023-09-19T10:30:29;20.70;60.90
37322;DHT22;23697;48.684;9.032;2023-09-19T10:33:02;20.60;61.80
37322;DHT22;23697;48.684;9.032;2023-09-19T10:35:32;20.60;60.40
37322;DHT22;23697;48.684;9.032;2023-09-19T10:38:10;20.80;59.50
37322;DHT22;23697;48.684;9.032;2023-09-19T10:40:40;21.10;61.30
37322;DHT22;23697;48.684;9.032;2023-09-19T10:43:15;21.20;60.20
37322;DHT22;23697;48.684;9.032;2023-09-19T10:45:48;21.30;58.90
37322;DHT22;23697;48.684;9.032;2023-09-19T10:48:17;21.30;60.80
37322;DHT22;23697;48.684;9.032;2023-09-19T10:50:49;21.40;58.30
37322;DHT22;23697;48.684;9.032;2023-09-19T10:53:17;21.50;58.10
37322;DHT22;23697;48.684;9.032;2023-09-19T10:55:50;21.50;57.60
37322;DHT22;23697;48.684;9.032;2023-09-19T10:58:31;21.60;58.30
37322;DHT22;23697;48.684;9.032;2023-09-19T11:01:00;21.50;60.10
37322;DHT22;23697;48.684;9.032;2023-09-19T11:03:37;21.60;59.50
37322;DHT22;23697;48.684;9.032;2023-09-19T11:06:11;21.40;60.70
37322;DHT22;23697;48.684;9.032;2023-09-19T11:09:03;21.10;58.20
37322;DHT22;23697;48.684;9.032;2023-09-19T11:11:51;21.20;58.70
37322;DHT22;23697;48.684;9.032;2023-09-19T11:14:39;20.90;59.30
37322;DHT22;23697;48.684;9.032;2023-09-19T11:17:40;21.10;57.70
37322;DHT22;23697;48.684;9.032;2023-09-19T11:20:25;21.40;59.80
37322;DHT22;23697;48.684;9.032;2023-09-19T11:23:20;21.50;58.00
37322;DHT22;23697;48.684;9.032;2023-09-19T11:25:51;21.50;59.70
37322;DHT22;23697;48.684;9.032;2023-09-19T11:28:35;21.30;59.20
37322;DHT22;23697;48.684;9.032;2023-09-19T11:34:41;21.40;57.60
37322;DHT22;23697;48.684;9.032;2023-09-19T11:40:37;22.00;57.80
37322;DHT22;23697;48.684;9.032;2023-09-19T11:43:38;22.10;58.20
37322;DHT22;23697;48.684;9.032;2023-09-19T11:46:07;22.20;58.90
37322;DHT22;23697;48.684;9.032;2023-09-19T11:48:35;22.40;55.20
37322;DHT22;23697;48.684;9.032;2023-09-19T11:51:16;22.60;58.70
37322;DHT22;23697;48.684;9.032;2023-09-19T11:53:48;22.40;55.90
37322;DHT22;23697;48.684;9.032;2023-09-19T11:56:17;22.00;55.10
37322;DHT22;23697;48.684;9.032;2023-09-19T11:58:44;21.60;56.60
37322;DHT22;23697;48.684;9.032;2023-09-19T12:01:15;21.50;57.70
37322;DHT22;23697;48.684;9.032;2023-09-19T12:03:58;21.80;56.60
37322;DHT22;23697;48.684;9.032;2023-09-19T12:06:28;22.10;58.70
37322;DHT22;23697;48.684;9.032;2023-09-19T12:08:57;21.80;56.00
37322;DHT22;23697;48.684;9.032;2023-09-19T12:11:28;21.70;56.80
37322;DHT22;23697;48.684;9.032;2023-09-19T12:13:59;21.90;55.90
37322;DHT22;23697;48.684;9.032;2023-09-19T12:16:27;21.80;57.30
37322;DHT22;23697;48.684;9.032;2023-09-19T12:18:57;22.00;57.10
37322;DHT22;23697;48.684;9.032;2023-09-19T12:21:28;22.20;55.80
37322;DHT22;23697;48.684;9.032;2023-09-19T12:24:07;22.30;58.30
37322;DHT22;23697;48.684;9.032;2023-09-19T12:26:42;22.40;54.30
37322;DHT22;23697;48.684;9.032;2023-09-19T12:29:14;22.50;57.70
37322;DHT22;23697;48.684;9.032;2023-09-19T12:31:50;22.70;56.70
37322;DHT22;23697;48.684;9.032;2023-09-19T12:34:20;22.60;54.10
37322;DHT22;23697;48.684;9.032;2023-09-19T12:36:49;22.60;56.40
37322;DHT22;23697;48.684;9.032;2023-09-19T12:39:23;22.70;56.20
37322;DHT22;23697;48.684;9.032;2023-09-19T12:41:51;22.60;55.60
37322;DHT22;23697;48.684;9.032;2023-09-19T12:44:19;22.70;56.50
37322;DHT22;23697;48.684;9.032;2023-09-19T12:46:46;22.60;52.80
37322;DHT22;23697;48.684;9.032;2023-09-19T12:49:16;22.60;54.10
37322;DHT22;23697;48.684;9.032;2023-09-19T12:51:45;22.70;55.70
37322;DHT22;23697;48.684;9.032;2023-09-19T12:54:13;22.60;55.00
37322;DHT22;23697;48.684;9.032;2023-09-19T12:56:43;22.80;55.60
37322;DHT22;23697;48.684;9.032;2023-09-19T12:59:14;22.90;55.80
37322;DHT22;23697;48.684;9.032;2023-09-19T13:01:42;22.90;54.90
37322;DHT22;23697;48.684;9.032;2023-09-19T13:04:16;22.90;55.50
37322;DHT22;23697;48.684;9.032;2023-09-19T13:06:52;22.60;55.20
37322;DHT22;23697;48.684;9.032;2023-09-19T13:09:22;22.60;55.90
37322;DHT22;23697;48.684;9.032;2023-09-19T13:11:57;22.50;56.00
37322;DHT22;23697;48.684;9.032;2023-09-19T13:14:28;22.70;57.10
37322;DHT22;23697;48.684;9.032;2023-09-19T13:17:01;22.80;57.30
37322;DHT22;23697;48.684;9.032;2023-09-19T13:19:43;22.90;55.60
37322;DHT22;23697;48.684;9.032;2023-09-19T13:25:01;23.00;53.50
37322;DHT22;23697;48.684;9.032;2023-09-19T13:27:29;22.90;54.20
37322;DHT22;23697;48.684;9.032;2023-09-19T13:29:59;22.90;53.70
37322;DHT22;23697;48.684;9.032;2023-09-19T13:32:26;23.10;53.50
37322;DHT22;23697;48.684;9.032;2023-09-19T13:34:53;23.10;52.30
37322;DHT22;23697;48.684;9.032;2023-09-19T13:37:20;23.30;54.10
37322;DHT22;23697;48.684;9.032;2023-09-19T13:39:47;23.30;52.20
37322;DHT22;23697;48.684;9.032;2023-09-19T13:42:15;23.50;52.90
37322;DHT22;23697;48.684;9.032;2023-09-19T13:44:44;23.40;52.90
37322;DHT22;23697;48.684;9.032;2023-09-19T13:47:10;23.40;51.80
37322;DHT22;23697;48.684;9.032;2023-09-19T13:49:39;23.20;52.30
37322;DHT22;23697;48.684;9.032;2023-09-19T13:52:06;22.90;52.90
37322;DHT22;23697;48.684;9.032;2023-09-19T13:54:33;23.00;54.90
37322;DHT22;23697;48.684;9.032;2023-09-19T13:57:00;22.90;52.60
37322;DHT22;23697;48.684;9.032;2023-09-19T13:59:28;22.90;53.90
37322;DHT22;23697;48.684;9.032;2023-09-19T14:01:56;23.10;54.10
37322;DHT22;23697;48.684;9.032;2023-09-19T14:04:23;23.20;52.10
37322;DHT22;23697;48.684;9.032;2023-09-19T14:06:50;23.40;55.20
37322;DHT22;23697;48.684;9.032;2023-09-19T14:09:19;23.40;53.40
37322;DHT22;23697;48.684;9.032;2023-09-19T14:11:49;23.50;51.50
37322;DHT22;23697;48.684;9.032;2023-09-19T14:14:18;23.40;52.20
37322;DHT22;23697;48.684;9.032;2023-09-19T14:16:47;23.60;54.50
37322;DHT22;23697;48.684;9.032;2023-09-19T14:19:14;23.50;50.80
37322;DHT22;23697;48.684;9.032;2023-09-19T14:21:41;23.10;53.10
37322;DHT22;23697;48.684;9.032;2023-09-19T14:24:09;22.90;53.30
37322;DHT22;23697;48.684;9.032;2023-09-19T14:26:37;22.90;53.00
37322;DHT22;23697;48.684;9.032;2023-09-19T14:29:04;22.90;52.20
37322;DHT22;23697;48.684;9.032;2023-09-19T14:31:33;23.00;51.80
37322;DHT22;23697;48.684;9.032;2023-09-19T14:34:09;23.10;52.40
37322;DHT22;23697;48.684;9.032;2023-09-19T14:36:36;23.20;50.20
37322;DHT22;23697;48.684;9.032;2023-09-19T14:39:09;23.20;52.30
37322;DHT22;23697;48.684;9.032;2023-09-19T14:41:36;23.10;50.90
37322;DHT22;23697;48.684;9.032;2023-09-19T14:44:04;23.10;48.20
37322;DHT22;23697;48.684;9.032;2023-09-19T14:46:41;22.80;49.10
37322;DHT22;23697;48.684;9.032;2023-09-19T14:49:20;22.90;50.80
37322;DHT22;23697;48.684;9.032;2023-09-19T14:51:54;22.70;49.80
37322;DHT22;23697;48.684;9.032;2023-09-19T14:54:21;22.60;51.60
37322;DHT22;23697;48.684;9.032;2023-09-19T14:56:53;22.60;50.70
37322;DHT22;23697;48.684;9.032;2023-09-19T14:59:43;22.60;50.70
37322;DHT22;23697;48.684;9.032;2023-09-19T15:02:10;22.40;50.00
37322;DHT22;23697;48.684;9.032;2023-09-19T15:04:44;22.40;53.30
37322;DHT22;23697;48.684;9.032;2023-09-19T15:07:13;22.20;52.70
37322;DHT22;23697;48.684;9.032;2023-09-19T15:09:46;22.20;53.00
37322;DHT22;23697;48.684;9.032;2023-09-19T15:12:15;22.40;53.10
37322;DHT22;23697;48.684;9.032;2023-09-19T15:14:46;22.50;53.40
37322;DHT22;23697;48.684;9.032;2023-09-19T15:17:14;22.40;52.20
37322;DHT22;23697;48.684;9.032;2023-09-19T15:19:42;22.50;51.80
37322;DHT22;23697;48.684;9.032;2023-09-19T15:22:14;22.50;51.00
37322;DHT22;23697;48.684;9.032;2023-09-19T15:24:45;22.40;53.40
37322;DHT22;23697;48.684;9.032;2023-09-19T15:27:14;22.40;53.00
37322;DHT22;23697;48.684;9.032;2023-09-19T15:29:46;22.20;52.80
37322;DHT22;23697;48.684;9.032;2023-09-19T15:32:17;22.10;53.50
37322;DHT22;23697;48.684;9.032;2023-09-19T15:34:52;22.00;52.80
37322;DHT22;23697;48.684;9.032;2023-09-19T15:37:22;21.90;53.70
37322;DHT22;23697;48.684;9.032;2023-09-19T15:39:49;21.90;53.60
37322;DHT22;23697;48.684;9.032;2023-09-19T15:42:18;21.80;54.50
37322;DHT22;23697;48.684;9.032;2023-09-19T15:44:45;21.70;53.50
37322;DHT22;23697;48.684;9.032;2023-09-19T15:47:14;21.70;53.30
37322;DHT22;23697;48.684;9.032;2023-09-19T15:49:43;21.60;55.50
37322;DHT22;23697;48.684;9.032;2023-09-19T15:52:12;21.60;53.60
37322;DHT22;23697;48.684;9.032;2023-09-19T15:54:39;21.60;54.50
37322;DHT22;23697;48.684;9.032;2023-09-19T15:57:10;21.60;54.40
37322;DHT22;23697;48.684;9.032;2023-09-19T15:59:38;21.60;54.50
37322;DHT22;23697;48.684;9.032;2023-09-19T16:02:16;21.50;54.60
37322;DHT22;23697;48.684;9.032;2023-09-19T16:04:48;21.30;53.70
37322;DHT22;23697;48.684;9.032;2023-09-19T16:07:17;21.30;55.70
37322;DHT22;23697;48.684;9.032;2023-09-19T16:09:46;21.20;55.40
37322;DHT22;23697;48.684;9.032;2023-09-19T16:12:13;21.20;54.90
37322;DHT22;23697;48.684;9.032;2023-09-19T16:14:40;21.10;55.20
37322;DHT22;23697;48.684;9.032;2023-09-19T16:17:10;21.10;56.30
37322;DHT22;23697;48.684;9.032;2023-09-19T16:19:37;21.00;55.70
37322;DHT22;23697;48.684;9.032;2023-09-19T16:22:04;20.80;54.50
37322;DHT22;23697;48.684;9.032;2023-09-19T16:24:33;20.80;54.40
37322;DHT22;23697;48.684;9.032;2023-09-19T16:27:00;20.70;55.80
37322;DHT22;23697;48.684;9.032;2023-09-19T16:29:27;20.60;58.20
37322;DHT22;23697;48.684;9.032;2023-09-19T16:31:54;20.60;57.70
37322;DHT22;23697;48.684;9.032;2023-09-19T16:34:21;20.50;57.30
37322;DHT22;23697;48.684;9.032;2023-09-19T16:36:48;20.50;57.90
37322;DHT22;23697;48.684;9.032;2023-09-19T16:39:22;20.40;59.30
37322;DHT22;23697;48.684;9.032;2023-09-19T16:41:56;20.30;58.90
37322;DHT22;23697;48.684;9.032;2023-09-19T16:44:32;20.20;58.10
37322;DHT22;23697;48.684;9.032;2023-09-19T16:47:03;20.10;60.00
37322;DHT22;23697;48.684;9.032;2023-09-19T16:49:30;20.00;59.30
37322;DHT22;23697;48.684;9.032;2023-09-19T16:51:59;19.90;60.30
37322;DHT22;23697;48.684;9.032;2023-09-19T16:54:27;19.80;60.30
37322;DHT22;23697;48.684;9.032;2023-09-19T16:56:55;19.70;61.20
37322;DHT22;23697;48.684;9.032;2023-09-19T16:59:23;19.70;62.30
37322;DHT22;23697;48.684;9.032;2023-09-19T17:01:50;19.60;62.00
37322;DHT22;23697;48.684;9.032;2023-09-19T17:04:17;19.50;62.50
37322;DHT22;23697;48.684;9.032;2023-09-19T17:06:44;19.40;63.20
37322;DHT22;23697;48.684;9.032;2023-09-19T17:09:12;19.30;64.10
37322;DHT22;23697;48.684;9.032;2023-09-19T17:11:40;19.20;63.40
37322;DHT22;23697;48.684;9.032;2023-09-19T17:14:08;19.10;64.30
37322;DHT22;23697;48.684;9.032;2023-09-19T17:16:36;19.10;64.20
37322;DHT22;23697;48.684;9.032;2023-09-19T17:19:03;19.00;64.80
37322;DHT22;23697;48.684;9.032;2023-09-19T17:21:31;18.90;65.60